Time;durP1;ratioP1;P1;durP2;ratioP2;P2;SDS_P1;SDS_P2;PMS_P1;PMS_P2;Temp;Humidity;BMP_temperature;BMP_pressure;BME280_temperature;BME280_humidity;BME280_pressure;Samples;Min_cycle;Max_cycle;Signal;HPM_P1;HPM_P2
2022/05/11 00:00:07;;;;;;;6.27;2.90;;;13.50;99.90;;;;;;165930;29;1623;-72
2022/05/11 00:00:16;;;;;;;5.87;3.03;;;13.50;99.90;;;;;;165687;29;1425;-72
2022/05/11 00:00:22;;;;;;;5.74;3.01;;;13.60;99.90;;;;;;165214;29;1397;-72
2022/05/11 00:00:28;;;;;;;4.57;3.00;;;13.50;99.90;;;;;;166505;29;1223;-72
2022/05/11 00:00:35;;;;;;;4.07;3.03;;;13.50;99.90;;;;;;166584;29;1228;-72
2022/05/11 00:00:41;;;;;;;4.80;3.03;;;13.50;99.90;;;;;;166599;29;1055;-71
2022/05/11 00:00:49;;;;;;;4.64;2.90;;;13.50;99.90;;;;;;166257;29;1498;-72
2022/05/11 00:00:55;;;;;;;4.72;2.96;;;13.50;99.90;;;;;;165791;29;1604;-71
2022/05/11 00:01:01;;;;;;;5.90;3.00;;;13.50;99.90;;;;;;165808;29;939;-72
2022/05/11 00:01:12;;;;;;;5.70;3.00;;;13.50;99.90;;;;;;166398;29;1492;-73
2022/05/11 00:01:18;;;;;;;5.93;3.00;;;13.40;99.90;;;;;;166255;29;1087;-72
2022/05/11 00:01:26;;;;;;;6.17;2.90;;;13.40;99.90;;;;;;166423;29;1334;-71
2022/05/11 00:01:34;;;;;;;4.83;2.77;;;13.40;99.90;;;;;;165168;29;1542;-71
2022/05/11 00:01:40;;;;;;;4.26;2.69;;;13.40;99.90;;;;;;165904;29;1477;-71
2022/05/11 00:01:47;;;;;;;4.78;2.90;;;13.40;99.90;;;;;;166473;29;1325;-72
2022/05/11 00:01:53;;;;;;;4.64;2.92;;;13.30;99.90;;;;;;166554;29;1181;-72
2022/05/11 00:01:59;;;;;;;4.70;2.90;;;13.30;99.90;;;;;;167032;29;1470;-71
2022/05/11 00:02:05;;;;;;;5.47;3.07;;;13.40;99.90;;;;;;167307;29;823;-71
2022/05/11 00:02:11;;;;;;;5.04;3.02;;;13.30;99.90;;;;;;165807;29;1394;-72
2022/05/11 00:02:17;;;;;;;4.63;2.90;;;13.30;99.90;;;;;;165911;29;1657;-72
2022/05/11 00:02:23;;;;;;;4.57;3.00;;;13.30;99.90;;;;;;166393;29;1128;-71
2022/05/11 00:02:28;;;;;;;4.53;3.03;;;13.30;99.90;;;;;;166458;29;1389;-72
2022/05/11 00:02:35;;;;;;;3.88;2.97;;;13.30;99.90;;;;;;166453;29;1246;-72
2022/05/11 00:02:41;;;;;;;3.43;2.73;;;13.30;99.90;;;;;;166028;29;901;-72
2022/05/11 00:02:47;;;;;;;3.45;2.63;;;13.30;99.90;;;;;;165705;29;2146;-72
2022/05/11 00:02:53;;;;;;;3.40;2.50;;;13.30;99.90;;;;;;166357;29;1357;-71
2022/05/11 00:02:58;;;;;;;3.28;2.53;;;13.30;99.90;;;;;;166513;29;1162;-71
2022/05/11 00:03:05;;;;;;;3.33;2.55;;;13.30;99.90;;;;;;166372;29;1422;-71
2022/05/11 00:03:12;;;;;;;3.20;2.58;;;13.20;99.90;;;;;;165965;29;1541;-71
2022/05/11 00:03:18;;;;;;;3.30;2.63;;;13.20;99.90;;;;;;165184;29;1282;-72
2022/05/11 00:03:24;;;;;;;3.65;2.80;;;13.20;99.90;;;;;;165693;29;1693;-73
2022/05/11 00:03:30;;;;;;;4.20;2.90;;;13.20;99.90;;;;;;165065;29;1312;-71
2022/05/11 00:03:36;;;;;;;4.38;2.88;;;13.20;99.90;;;;;;165784;29;1743;-71
2022/05/11 00:03:42;;;;;;;4.50;2.87;;;13.20;99.90;;;;;;166019;29;1141;-72
2022/05/11 00:03:48;;;;;;;4.80;2.87;;;13.20;99.90;;;;;;164994;29;1700;-72
2022/05/11 00:03:54;;;;;;;4.70;2.80;;;13.20;99.90;;;;;;165143;29;1331;-72
2022/05/11 00:04:01;;;;;;;4.03;2.63;;;13.20;99.90;;;;;;166472;29;1257;-71
2022/05/11 00:04:09;;;;;;;3.88;2.60;;;13.20;99.90;;;;;;166486;29;1895;-71
2022/05/11 00:04:16;;;;;;;3.83;2.80;;;13.20;99.90;;;;;;166513;29;1319;-71
2022/05/11 00:04:22;;;;;;;3.60;2.84;;;13.20;99.90;;;;;;164440;29;1488;-72
2022/05/11 00:04:27;;;;;;;3.88;2.95;;;13.20;99.90;;;;;;165238;29;1317;-72
2022/05/11 00:04:33;;;;;;;4.57;3.07;;;13.20;99.90;;;;;;166574;29;1034;-72
2022/05/11 00:04:39;;;;;;;5.05;3.20;;;13.20;99.90;;;;;;166327;29;1330;-71
2022/05/11 00:04:44;;;;;;;4.93;3.03;;;13.20;99.90;;;;;;166659;29;1139;-72
2022/05/11 00:04:51;;;;;;;5.07;3.13;;;13.10;99.90;;;;;;165639;29;1309;-72
2022/05/11 00:04:56;;;;;;;5.22;3.13;;;13.20;99.90;;;;;;166054;29;965;-73
2022/05/11 00:05:04;;;;;;;4.57;3.03;;;13.10;99.90;;;;;;166333;29;948;-72
2022/05/11 00:05:12;;;;;;;3.87;2.90;;;13.10;99.90;;;;;;165930;29;1381;-72
2022/05/11 00:05:18;;;;;;;5.68;2.87;;;13.10;99.90;;;;;;165862;29;2137;-71
2022/05/11 00:05:24;;;;;;;5.30;2.70;;;13.10;99.90;;;;;;165829;29;1267;-71
2022/05/11 00:05:30;;;;;;;5.23;2.63;;;13.10;99.90;;;;;;165790;29;1056;-71
2022/05/11 00:05:36;;;;;;;5.68;2.58;;;13.10;99.90;;;;;;165892;29;1099;-72
2022/05/11 00:05:42;;;;;;;6.43;2.73;;;13.10;99.90;;;;;;164467;29;1312;-72
2022/05/11 00:05:48;;;;;;;4.80;2.88;;;13.10;99.90;;;;;;166021;29;1061;-72
2022/05/11 00:05:54;;;;;;;4.75;2.90;;;13.10;99.90;;;;;;165156;29;1308;-72
2022/05/11 00:05:59;;;;;;;5.05;3.03;;;13.10;99.90;;;;;;166553;29;1372;-71
2022/05/11 00:06:05;;;;;;;5.30;3.20;;;13.10;99.90;;;;;;164655;29;1313;-71
2022/05/11 00:06:11;;;;;;;4.80;3.25;;;13.10;99.90;;;;;;165184;29;1490;-71
2022/05/11 00:06:17;;;;;;;4.63;2.95;;;13.10;99.90;;;;;;165899;29;1386;-71
2022/05/11 00:06:23;;;;;;;5.05;2.90;;;13.00;99.90;;;;;;165730;29;1224;-71
2022/05/11 00:06:29;;;;;;;5.30;2.85;;;13.00;99.90;;;;;;165234;29;1626;-72
2022/05/11 00:06:37;;;;;;;4.73;2.70;;;13.00;99.90;;;;;;165851;29;1446;-72
2022/05/11 00:06:43;;;;;;;4.35;2.55;;;13.00;99.90;;;;;;164719;30;1229;-71
2022/05/11 00:06:49;;;;;;;4.20;2.60;;;13.00;99.90;;;;;;164561;30;1209;-71
2022/05/11 00:06:55;;;;;;;3.40;2.60;;;13.00;99.90;;;;;;165463;29;865;-72
2022/05/11 00:07:01;;;;;;;3.35;2.63;;;13.00;99.90;;;;;;165810;29;1347;-72
2022/05/11 00:07:07;;;;;;;3.40;2.70;;;13.00;99.90;;;;;;165285;29;1785;-72
2022/05/11 00:07:12;;;;;;;3.78;2.88;;;13.00;99.90;;;;;;165840;29;1289;-72
2022/05/11 00:07:18;;;;;;;4.27;3.07;;;13.00;99.90;;;;;;167170;29;1298;-72
2022/05/11 00:07:24;;;;;;;4.63;3.25;;;13.00;99.90;;;;;;167332;29;837;-71
2022/05/11 00:07:30;;;;;;;5.07;3.40;;;12.90;99.90;;;;;;166467;29;1249;-71
2022/05/11 00:07:36;;;;;;;5.18;3.45;;;12.90;99.90;;;;;;166686;29;885;-72
2022/05/11 00:07:41;;;;;;;5.95;3.53;;;12.90;99.90;;;;;;165819;29;1346;-71
2022/05/11 00:07:48;;;;;;;5.70;3.40;;;12.90;99.90;;;;;;165497;29;1166;-72
2022/05/11 00:07:55;;;;;;;6.20;3.30;;;12.90;99.90;;;;;;165857;29;1558;-72
2022/05/11 00:08:01;;;;;;;6.33;3.50;;;12.90;99.90;;;;;;165343;29;1328;-72
2022/05/11 00:08:07;;;;;;;6.36;3.40;;;12.90;99.90;;;;;;165044;29;1698;-73
2022/05/11 00:08:13;;;;;;;5.63;3.22;;;12.90;99.90;;;;;;166538;29;1629;-72
2022/05/11 00:08:19;;;;;;;5.17;3.20;;;12.90;99.90;;;;;;166597;29;1337;-71
2022/05/11 00:08:25;;;;;;;4.37;2.87;;;12.90;99.90;;;;;;165856;29;1390;-71
2022/05/11 00:08:31;;;;;;;5.07;2.78;;;12.90;99.90;;;;;;165934;29;1323;-71
2022/05/11 00:08:37;;;;;;;5.18;2.75;;;12.90;99.90;;;;;;164988;29;2084;-72
2022/05/11 00:08:43;;;;;;;4.82;2.65;;;12.90;99.90;;;;;;166705;29;900;-71
2022/05/11 00:08:49;;;;;;;5.00;2.70;;;12.90;99.90;;;;;;165488;29;1077;-72
2022/05/11 00:08:57;;;;;;;5.17;2.90;;;12.90;99.90;;;;;;166100;29;928;-71
2022/05/11 00:09:05;;;;;;;4.54;2.88;;;12.90;99.90;;;;;;165886;29;1165;-72
2022/05/11 00:09:13;;;;;;;4.46;2.97;;;12.90;99.90;;;;;;165828;29;1414;-72
2022/05/11 00:09:19;;;;;;;4.78;3.10;;;12.90;99.90;;;;;;165742;29;1463;-71
2022/05/11 00:09:25;;;;;;;4.85;3.10;;;12.90;99.90;;;;;;165739;29;1314;-72
2022/05/11 00:09:31;;;;;;;5.15;3.17;;;12.90;99.90;;;;;;165284;29;1357;-73
2022/05/11 00:09:36;;;;;;;6.20;3.30;;;12.90;99.90;;;;;;164961;29;1616;-72
2022/05/11 00:09:42;;;;;;;5.70;3.05;;;12.90;99.90;;;;;;165806;29;1220;-72
2022/05/11 00:09:48;;;;;;;5.47;3.08;;;12.90;99.90;;;;;;167239;29;881;-71
2022/05/11 00:09:53;;;;;;;5.50;2.93;;;12.90;99.90;;;;;;166703;29;1244;-72
2022/05/11 00:09:59;;;;;;;5.18;2.83;;;12.90;99.90;;;;;;167225;29;916;-72
2022/05/11 00:10:12;;;;;;;3.65;2.70;;;12.90;99.90;;;;;;165946;29;1911;-72
2022/05/11 00:10:19;;;;;;;3.81;2.80;;;12.90;99.90;;;;;;165900;29;1537;-72
2022/05/11 00:10:25;;;;;;;3.67;2.97;;;12.90;99.90;;;;;;166168;29;1401;-71
2022/05/11 00:10:32;;;;;;;4.00;2.90;;;12.90;99.90;;;;;;167147;29;1690;-72
2022/05/11 00:10:38;;;;;;;4.27;2.88;;;12.90;99.90;;;;;;166338;29;1009;-71
2022/05/11 00:10:44;;;;;;;3.97;2.70;;;12.90;99.90;;;;;;166621;29;893;-71
2022/05/11 00:10:50;;;;;;;4.43;2.90;;;12.90;99.90;;;;;;166314;29;1299;-71
2022/05/11 00:10:56;;;;;;;4.53;3.00;;;12.90;99.90;;;;;;165267;29;1382;-72
2022/05/11 00:11:02;;;;;;;3.80;2.87;;;12.90;99.90;;;;;;166505;29;902;-72
2022/05/11 00:11:08;;;;;;;3.93;2.93;;;12.90;99.90;;;;;;166271;29;1457;-72
2022/05/11 00:11:14;;;;;;;4.20;2.97;;;12.90;99.90;;;;;;166075;29;1361;-71
2022/05/11 00:11:21;;;;;;;3.70;2.78;;;12.90;99.90;;;;;;165989;29;1012;-71
2022/05/11 00:11:28;;;;;;;4.40;2.83;;;12.90;99.90;;;;;;165539;29;1104;-72
2022/05/11 00:11:34;;;;;;;4.40;2.80;;;12.90;99.90;;;;;;164865;29;1412;-72
2022/05/11 00:11:42;;;;;;;4.50;2.90;;;12.90;99.90;;;;;;164498;30;1532;-71
2022/05/11 00:11:48;;;;;;;5.17;3.07;;;12.90;99.90;;;;;;165271;29;1002;-71
2022/05/11 00:11:54;;;;;;;4.80;3.00;;;12.90;99.90;;;;;;165223;29;941;-71
2022/05/11 00:11:59;;;;;;;4.65;2.90;;;12.90;99.90;;;;;;165298;29;1293;-72
2022/05/11 00:12:06;;;;;;;5.40;2.95;;;12.90;99.90;;;;;;164803;29;1379;-71
2022/05/11 00:12:11;;;;;;;4.85;2.70;;;12.90;99.90;;;;;;164791;30;1132;-71
2022/05/11 00:12:17;;;;;;;4.05;2.55;;;12.90;99.90;;;;;;165436;29;1135;-72
2022/05/11 00:12:23;;;;;;;4.53;2.67;;;12.90;99.90;;;;;;166848;29;1286;-71
2022/05/11 00:12:29;;;;;;;4.20;2.60;;;12.90;99.90;;;;;;166041;29;1014;-71
2022/05/11 00:12:35;;;;;;;3.63;2.70;;;12.90;99.90;;;;;;166556;29;1020;-71
2022/05/11 00:12:45;;;;;;;4.03;2.70;;;12.90;99.90;;;;;;166654;29;941;-72
2022/05/11 00:12:51;;;;;;;4.41;2.81;;;12.90;99.90;;;;;;165699;29;1531;-71
2022/05/11 00:12:57;;;;;;;4.20;2.75;;;12.90;99.90;;;;;;166508;29;1692;-71
2022/05/11 00:13:05;;;;;;;4.48;2.74;;;12.90;99.90;;;;;;165247;29;1132;-71
2022/05/11 00:13:11;;;;;;;4.18;2.72;;;12.90;99.90;;;;;;166577;29;1332;-71
2022/05/11 00:13:17;;;;;;;3.55;2.55;;;12.90;99.90;;;;;;166442;29;1169;-72
2022/05/11 00:13:23;;;;;;;3.50;2.45;;;12.90;99.90;;;;;;165881;29;1317;-72
2022/05/11 00:13:29;;;;;;;3.40;2.53;;;12.90;99.90;;;;;;166552;29;1447;-71
2022/05/11 00:13:34;;;;;;;2.97;2.50;;;12.90;99.90;;;;;;166105;29;881;-71
2022/05/11 00:13:41;;;;;;;3.17;2.58;;;12.90;99.90;;;;;;165852;29;1218;-72
2022/05/11 00:13:47;;;;;;;3.38;2.70;;;12.90;99.90;;;;;;164681;29;1640;-72
2022/05/11 00:13:53;;;;;;;3.70;2.88;;;12.90;99.90;;;;;;165496;29;1222;-72
2022/05/11 00:14:00;;;;;;;4.03;2.87;;;12.90;99.90;;;;;;165469;29;1187;-71
2022/05/11 00:14:07;;;;;;;4.40;2.95;;;12.90;99.90;;;;;;165937;29;1436;-72
2022/05/11 00:14:13;;;;;;;5.17;3.00;;;12.90;99.90;;;;;;165317;29;1711;-71
2022/05/11 00:14:18;;;;;;;5.80;2.97;;;12.90;99.90;;;;;;164404;30;1097;-71
2022/05/11 00:14:24;;;;;;;5.25;2.83;;;12.90;99.90;;;;;;165212;29;1052;-71
2022/05/11 00:14:30;;;;;;;5.20;2.80;;;12.90;99.90;;;;;;165249;29;1241;-72
2022/05/11 00:14:36;;;;;;;4.93;2.70;;;12.90;99.90;;;;;;165784;29;1197;-72
2022/05/11 00:14:41;;;;;;;4.45;2.70;;;12.90;99.90;;;;;;165997;29;841;-72
2022/05/11 00:14:47;;;;;;;3.67;2.75;;;12.90;99.90;;;;;;165475;29;1294;-72
2022/05/11 00:14:53;;;;;;;4.40;2.83;;;12.90;99.90;;;;;;165992;29;1015;-72
2022/05/11 00:14:59;;;;;;;4.38;2.92;;;12.90;99.90;;;;;;165719;29;1109;-72
2022/05/11 00:15:05;;;;;;;4.93;3.20;;;12.90;99.90;;;;;;165428;29;1416;-71
2022/05/11 00:15:15;;;;;;;4.86;3.14;;;12.90;99.90;;;;;;165815;29;1365;-71
2022/05/11 00:15:23;;;;;;;4.71;3.00;;;12.90;99.90;;;;;;165903;29;1815;-72
2022/05/11 00:15:29;;;;;;;4.43;2.90;;;12.90;99.90;;;;;;165547;29;964;-70
2022/05/11 00:15:36;;;;;;;3.85;2.67;;;12.90;99.90;;;;;;164619;29;1578;-72
2022/05/11 00:15:41;;;;;;;3.88;2.60;;;12.90;99.90;;;;;;164503;29;1853;-72
2022/05/11 00:15:47;;;;;;;4.30;2.70;;;12.90;99.90;;;;;;164808;30;807;-71
2022/05/11 00:15:53;;;;;;;4.30;2.70;;;12.90;99.90;;;;;;165863;29;1203;-72
2022/05/11 00:15:58;;;;;;;4.30;2.70;;;12.90;99.90;;;;;;165403;29;967;-72
2022/05/11 00:16:04;;;;;;;4.30;2.60;;;12.90;99.90;;;;;;165871;29;1527;-72
2022/05/11 00:16:11;;;;;;;4.53;2.70;;;12.90;99.90;;;;;;165943;29;1013;-71
2022/05/11 00:16:17;;;;;;;3.96;2.68;;;12.90;99.90;;;;;;165927;29;1052;-72
2022/05/11 00:16:27;;;;;;;7.70;2.83;;;12.90;99.90;;;;;;166450;29;1586;-71
2022/05/11 00:16:34;;;;;;;7.43;2.80;;;12.90;99.90;;;;;;166626;29;1187;-72
2022/05/11 00:16:41;;;;;;;6.93;2.70;;;12.90;99.90;;;;;;165278;29;1253;-71
2022/05/11 00:16:46;;;;;;;7.20;2.77;;;12.90;99.90;;;;;;166141;29;1005;-72
2022/05/11 00:16:52;;;;;;;3.70;2.67;;;12.90;99.90;;;;;;165924;29;1300;-72
2022/05/11 00:16:59;;;;;;;3.63;2.65;;;12.90;99.90;;;;;;166543;29;1221;-71
2022/05/11 00:17:05;;;;;;;3.77;2.70;;;13.00;99.90;;;;;;166050;29;889;-71
2022/05/11 00:17:10;;;;;;;3.67;2.65;;;13.00;99.90;;;;;;165964;29;976;-72
2022/05/11 00:17:16;;;;;;;3.43;2.60;;;13.00;99.90;;;;;;166496;29;1038;-71
2022/05/11 00:17:22;;;;;;;4.05;2.63;;;13.00;99.90;;;;;;166537;29;1004;-71
2022/05/11 00:17:28;;;;;;;5.15;2.70;;;13.00;99.90;;;;;;166435;29;1089;-71
2022/05/11 00:17:34;;;;;;;5.30;2.65;;;13.00;99.90;;;;;;165852;29;1220;-71
2022/05/11 00:17:39;;;;;;;5.10;2.60;;;13.00;99.90;;;;;;163840;30;1402;-72
2022/05/11 00:17:45;;;;;;;6.10;2.78;;;13.00;99.90;;;;;;165092;29;2583;-72
2022/05/11 00:17:51;;;;;;;6.20;2.75;;;13.00;99.90;;;;;;165148;29;1480;-72
2022/05/11 00:17:57;;;;;;;5.38;2.70;;;13.10;99.90;;;;;;165703;29;1553;-71
2022/05/11 00:18:04;;;;;;;5.60;2.80;;;13.10;99.90;;;;;;165261;29;1203;-72
2022/05/11 00:18:10;;;;;;;6.30;2.80;;;13.10;99.90;;;;;;163778;29;2022;-72
2022/05/11 00:18:16;;;;;;;5.53;2.88;;;13.10;99.90;;;;;;166244;29;1376;-72
2022/05/11 00:18:21;;;;;;;5.53;3.03;;;13.10;99.90;;;;;;166124;29;1458;-72
2022/05/11 00:18:27;;;;;;;5.57;3.10;;;13.10;99.90;;;;;;166096;29;1546;-71
2022/05/11 00:18:34;;;;;;;5.20;2.97;;;13.10;99.90;;;;;;165742;29;1331;-71
2022/05/11 00:18:40;;;;;;;4.50;2.78;;;13.10;99.90;;;;;;166570;29;1608;-71
2022/05/11 00:18:46;;;;;;;4.00;2.70;;;13.10;99.90;;;;;;164848;29;1312;-71
2022/05/11 00:18:52;;;;;;;3.43;2.43;;;13.10;99.90;;;;;;165313;29;1462;-71
2022/05/11 00:18:58;;;;;;;3.55;2.58;;;13.10;99.90;;;;;;166093;29;1059;-71
2022/05/11 00:19:04;;;;;;;3.55;2.72;;;13.20;99.90;;;;;;166482;29;1473;-72
2022/05/11 00:19:09;;;;;;;3.50;2.80;;;13.20;99.90;;;;;;166611;29;1578;-71
2022/05/11 00:19:19;;;;;;;3.78;2.80;;;13.20;99.90;;;;;;166327;29;1425;-71
2022/05/11 00:19:25;;;;;;;4.20;3.00;;;13.20;99.90;;;;;;165773;29;858;-71
2022/05/11 00:19:31;;;;;;;4.03;2.90;;;13.20;99.90;;;;;;165359;29;1344;-72
2022/05/11 00:19:37;;;;;;;4.20;2.90;;;13.20;99.90;;;;;;165409;29;1467;-72
2022/05/11 00:19:43;;;;;;;4.00;2.90;;;13.20;99.90;;;;;;166523;29;1580;-72
2022/05/11 00:19:49;;;;;;;4.03;2.90;;;13.20;99.90;;;;;;167095;29;1941;-71
2022/05/11 00:19:54;;;;;;;3.97;2.87;;;13.20;99.90;;;;;;167213;29;1175;-72
2022/05/11 00:20:00;;;;;;;4.10;2.80;;;13.20;99.90;;;;;;166563;29;1200;-71
2022/05/11 00:20:09;;;;;;;4.10;2.80;;;13.20;99.90;;;;;;166382;29;1343;-72
2022/05/11 00:20:17;;;;;;;4.14;2.81;;;13.20;99.90;;;;;;165960;29;1079;-72
2022/05/11 00:20:23;;;;;;;4.08;2.77;;;13.20;99.90;;;;;;165173;29;1432;-72
2022/05/11 00:20:29;;;;;;;3.53;2.77;;;13.20;99.90;;;;;;165939;29;1351;-72
2022/05/11 00:20:34;;;;;;;3.60;2.80;;;13.20;99.90;;;;;;166452;29;1359;-71
2022/05/11 00:20:40;;;;;;;3.83;2.95;;;13.20;99.90;;;;;;165892;29;1247;-71
2022/05/11 00:20:46;;;;;;;3.83;2.97;;;13.20;99.90;;;;;;166343;29;1237;-72
2022/05/11 00:20:52;;;;;;;3.70;2.97;;;13.20;99.90;;;;;;165763;29;1261;-72
2022/05/11 00:20:58;;;;;;;3.83;2.90;;;13.20;99.90;;;;;;165939;29;1067;-72
2022/05/11 00:21:04;;;;;;;3.72;2.78;;;13.20;99.90;;;;;;165949;29;1016;-71
2022/05/11 00:21:11;;;;;;;3.40;2.54;;;13.20;99.90;;;;;;165047;29;1658;-71
2022/05/11 00:21:17;;;;;;;3.13;2.42;;;13.20;99.90;;;;;;165825;29;1175;-73
2022/05/11 00:21:24;;;;;;;3.14;2.50;;;13.20;99.90;;;;;;165912;29;921;-72
2022/05/11 00:21:30;;;;;;;3.25;2.67;;;13.20;99.90;;;;;;166317;29;1861;-71
2022/05/11 00:21:36;;;;;;;3.70;2.95;;;13.20;99.90;;;;;;166471;29;1267;-71
2022/05/11 00:21:42;;;;;;;4.22;2.97;;;13.20;99.90;;;;;;166524;29;1196;-72
2022/05/11 00:21:47;;;;;;;4.10;2.92;;;13.20;99.90;;;;;;165771;29;1457;-72
2022/05/11 00:21:53;;;;;;;4.45;2.90;;;13.20;99.90;;;;;;165123;29;1225;-72
2022/05/11 00:21:59;;;;;;;4.20;2.77;;;13.20;99.90;;;;;;165407;29;1596;-71
2022/05/11 00:22:05;;;;;;;4.60;2.60;;;13.20;99.90;;;;;;166049;29;1280;-72
2022/05/11 00:22:10;;;;;;;4.07;2.58;;;13.20;99.90;;;;;;165937;29;1240;-72
2022/05/11 00:22:16;;;;;;;4.35;2.60;;;13.20;99.90;;;;;;166004;29;1070;-72
2022/05/11 00:22:22;;;;;;;4.47;2.63;;;13.20;99.90;;;;;;167128;29;1331;-71
2022/05/11 00:22:28;;;;;;;5.10;2.70;;;13.20;99.90;;;;;;166650;29;1198;-72
2022/05/11 00:22:34;;;;;;;5.10;2.75;;;13.20;99.90;;;;;;166198;29;1610;-71
2022/05/11 00:22:40;;;;;;;5.07;2.80;;;13.20;99.90;;;;;;165635;29;1550;-71
2022/05/11 00:22:46;;;;;;;5.63;2.90;;;13.20;99.90;;;;;;165684;29;1229;-71
2022/05/11 00:22:58;;;;;;;7.34;3.12;;;13.20;99.90;;;;;;166016;29;885;-72
2022/05/11 00:23:04;;;;;;;8.63;3.07;;;13.20;99.90;;;;;;165799;29;1398;-72
2022/05/11 00:23:10;;;;;;;8.18;3.00;;;13.20;99.90;;;;;;165424;29;1321;-72
2022/05/11 00:23:16;;;;;;;7.57;2.92;;;13.20;99.90;;;;;;165370;29;983;-72
2022/05/11 00:23:22;;;;;;;6.18;2.75;;;13.20;99.90;;;;;;163950;30;1322;-72
2022/05/11 00:23:27;;;;;;;3.60;2.75;;;13.20;99.90;;;;;;166344;29;1418;-71
2022/05/11 00:23:34;;;;;;;3.53;2.72;;;13.20;99.90;;;;;;166266;29;1592;-72
2022/05/11 00:23:40;;;;;;;4.80;2.90;;;13.20;99.90;;;;;;166268;29;1182;-72
2022/05/11 00:23:46;;;;;;;4.82;2.88;;;13.20;99.90;;;;;;167743;29;1624;-72
2022/05/11 00:23:53;;;;;;;5.07;2.97;;;13.20;99.90;;;;;;166818;29;1440;-72
2022/05/11 00:23:59;;;;;;;6.20;3.00;;;13.20;99.90;;;;;;166703;29;957;-72
2022/05/11 00:24:05;;;;;;;5.75;2.90;;;13.10;99.90;;;;;;166037;29;1237;-72
2022/05/11 00:24:11;;;;;;;5.35;2.97;;;13.20;99.90;;;;;;166491;29;1700;-72
2022/05/11 00:24:17;;;;;;;6.10;3.20;;;13.20;99.90;;;;;;166893;29;1551;-71
2022/05/11 00:24:25;;;;;;;6.13;3.10;;;13.20;99.90;;;;;;166782;29;1576;-71
2022/05/11 00:24:31;;;;;;;5.27;3.20;;;13.10;99.90;;;;;;166166;29;1415;-71
2022/05/11 00:24:37;;;;;;;5.07;3.15;;;13.10;99.90;;;;;;166433;29;1227;-71
2022/05/11 00:24:43;;;;;;;4.83;2.90;;;13.10;99.90;;;;;;167055;29;1248;-72
2022/05/11 00:24:48;;;;;;;7.55;2.95;;;13.10;99.90;;;;;;165920;29;1033;-72
2022/05/11 00:24:54;;;;;;;7.55;3.00;;;13.10;99.90;;;;;;165967;29;849;-71
2022/05/11 00:25:00;;;;;;;7.33;2.90;;;13.20;99.90;;;;;;165488;29;1166;-71
2022/05/11 00:25:09;;;;;;;9.12;2.98;;;13.10;99.90;;;;;;166047;29;1494;-72
2022/05/11 00:25:15;;;;;;;8.72;3.02;;;13.10;99.90;;;;;;166382;29;1568;-72
2022/05/11 00:25:25;;;;;;;5.77;2.90;;;13.10;99.90;;;;;;166552;29;1343;-72
2022/05/11 00:25:31;;;;;;;6.53;3.10;;;13.10;99.90;;;;;;167225;29;908;-72
2022/05/11 00:25:37;;;;;;;4.93;2.90;;;13.10;99.90;;;;;;166435;29;1409;-72
2022/05/11 00:25:44;;;;;;;4.75;2.88;;;13.10;99.90;;;;;;166058;29;795;-72
2022/05/11 00:25:50;;;;;;;4.72;2.88;;;13.10;99.90;;;;;;165581;29;1286;-72
2022/05/11 00:25:56;;;;;;;4.45;2.67;;;13.10;99.90;;;;;;166545;29;1274;-71
2022/05/11 00:26:02;;;;;;;4.00;2.60;;;13.10;99.90;;;;;;165943;29;1056;-72
2022/05/11 00:26:08;;;;;;;4.20;2.70;;;13.00;99.90;;;;;;166560;29;1206;-72
2022/05/11 00:26:15;;;;;;;4.18;2.67;;;13.10;99.90;;;;;;166258;29;1851;-72
2022/05/11 00:26:21;;;;;;;4.23;2.83;;;13.00;99.90;;;;;;165922;29;974;-73
2022/05/11 00:26:27;;;;;;;3.85;2.85;;;13.10;99.90;;;;;;164794;29;1819;-72
2022/05/11 00:26:33;;;;;;;3.50;2.75;;;13.00;99.90;;;;;;166532;29;940;-71
2022/05/11 00:26:38;;;;;;;3.63;2.80;;;13.10;99.90;;;;;;167172;29;1368;-71
2022/05/11 00:26:44;;;;;;;3.43;2.90;;;13.10;99.90;;;;;;167111;29;1098;-72
2022/05/11 00:26:50;;;;;;;3.33;2.83;;;13.10;99.90;;;;;;167213;29;896;-71
2022/05/11 00:26:55;;;;;;;3.13;2.67;;;13.10;99.90;;;;;;165770;29;1463;-72
2022/05/11 00:27:02;;;;;;;3.70;2.83;;;13.10;99.90;;;;;;166549;29;1449;-72
2022/05/11 00:27:07;;;;;;;4.67;2.93;;;13.00;99.90;;;;;;165943;29;1539;-73
2022/05/11 00:27:13;;;;;;;4.73;2.90;;;13.10;99.90;;;;;;166957;29;1261;-72
2022/05/11 00:27:19;;;;;;;4.95;2.90;;;13.10;99.90;;;;;;166469;29;1320;-72
2022/05/11 00:27:25;;;;;;;5.35;3.00;;;13.00;99.90;;;;;;165655;29;1014;-72
2022/05/11 00:27:31;;;;;;;4.80;2.83;;;13.10;99.90;;;;;;166034;29;912;-71
2022/05/11 00:27:37;;;;;;;3.93;2.77;;;13.10;99.90;;;;;;164873;29;1316;-72
2022/05/11 00:27:43;;;;;;;3.53;2.72;;;13.10;99.90;;;;;;165974;29;1024;-71
2022/05/11 00:27:48;;;;;;;3.40;2.63;;;13.10;99.90;;;;;;165884;29;3028;-72
2022/05/11 00:27:56;;;;;;;2.97;2.45;;;13.10;99.90;;;;;;166549;29;1528;-71
2022/05/11 00:28:02;;;;;;;3.90;2.67;;;13.10;99.90;;;;;;167747;29;1420;-72
2022/05/11 00:28:09;;;;;;;4.97;2.70;;;13.10;99.90;;;;;;167726;29;1194;-72
2022/05/11 00:28:15;;;;;;;5.92;2.88;;;13.10;99.90;;;;;;167792;29;897;-71
2022/05/11 00:28:21;;;;;;;6.15;3.13;;;13.10;99.90;;;;;;166970;29;2083;-72
2022/05/11 00:28:27;;;;;;;6.15;3.08;;;13.10;99.90;;;;;;165932;29;963;-72
2022/05/11 00:28:33;;;;;;;6.17;3.13;;;13.10;99.90;;;;;;165839;29;1507;-71
2022/05/11 00:28:39;;;;;;;5.88;3.30;;;13.10;99.90;;;;;;165423;29;1012;-71
2022/05/11 00:28:45;;;;;;;5.43;3.28;;;13.10;99.90;;;;;;165823;29;1400;-71
2022/05/11 00:28:51;;;;;;;6.20;3.17;;;13.10;99.90;;;;;;165963;29;1008;-71
2022/05/11 00:28:57;;;;;;;7.13;3.27;;;13.10;99.90;;;;;;167056;29;1097;-71
2022/05/11 00:29:02;;;;;;;7.00;3.17;;;13.10;99.90;;;;;;167269;29;963;-72
2022/05/11 00:29:08;;;;;;;6.45;2.95;;;13.10;99.90;;;;;;166647;29;2028;-72
2022/05/11 00:29:14;;;;;;;6.10;2.78;;;13.10;99.90;;;;;;166563;29;1087;-71
2022/05/11 00:29:19;;;;;;;5.47;2.78;;;13.10;99.90;;;;;;166629;29;842;-72
2022/05/11 00:29:25;;;;;;;4.93;2.90;;;13.10;99.90;;;;;;165071;29;1295;-71
2022/05/11 00:29:31;;;;;;;4.32;2.90;;;13.10;99.90;;;;;;165379;29;945;-71
2022/05/11 00:29:37;;;;;;;4.18;2.88;;;13.10;99.90;;;;;;163811;30;1329;-72
2022/05/11 00:29:42;;;;;;;4.30;2.80;;;13.10;99.90;;;;;;165419;29;906;-72
2022/05/11 00:29:48;;;;;;;4.82;2.85;;;13.10;99.90;;;;;;166336;29;1176;-71
2022/05/11 00:29:54;;;;;;;4.30;2.78;;;13.10;99.90;;;;;;166887;29;1194;-72
2022/05/11 00:29:59;;;;;;;4.30;2.70;;;13.10;99.90;;;;;;167233;29;1296;-72
2022/05/11 00:30:07;;;;;;;4.13;2.60;;;13.10;99.90;;;;;;166210;29;1911;-72
2022/05/11 00:30:13;;;;;;;4.37;2.78;;;13.10;99.90;;;;;;165746;29;1350;-72
2022/05/11 00:30:19;;;;;;;4.90;2.93;;;13.10;99.90;;;;;;166322;29;1227;-70
2022/05/11 00:30:27;;;;;;;6.43;2.90;;;13.10;99.90;;;;;;167092;29;1876;-71
2022/05/11 00:30:33;;;;;;;6.49;2.96;;;13.10;99.90;;;;;;165680;29;1450;-72
2022/05/11 00:30:39;;;;;;;6.70;3.03;;;13.20;99.90;;;;;;166494;29;1349;-72
2022/05/11 00:30:44;;;;;;;6.40;2.90;;;13.10;99.90;;;;;;165663;29;1242;-71
2022/05/11 00:30:50;;;;;;;4.55;2.85;;;13.10;99.90;;;;;;165947;29;858;-71
2022/05/11 00:30:56;;;;;;;3.85;2.78;;;13.10;99.90;;;;;;165947;29;1088;-72
2022/05/11 00:31:02;;;;;;;4.03;2.83;;;13.10;99.90;;;;;;165973;29;889;-71
2022/05/11 00:31:09;;;;;;;3.90;2.84;;;13.10;99.90;;;;;;165163;29;1479;-71
2022/05/11 00:31:14;;;;;;;3.60;2.80;;;13.10;99.90;;;;;;164767;30;921;-71
2022/05/11 00:31:20;;;;;;;3.90;3.00;;;13.10;99.90;;;;;;164749;29;1337;-72
2022/05/11 00:31:26;;;;;;;4.03;2.97;;;13.10;99.90;;;;;;166390;29;1239;-71
2022/05/11 00:31:31;;;;;;;4.27;2.87;;;13.10;99.90;;;;;;165494;29;1559;-71
2022/05/11 00:31:37;;;;;;;6.20;2.90;;;13.10;99.90;;;;;;165513;29;1441;-71
2022/05/11 00:31:43;;;;;;;6.38;2.95;;;13.10;99.90;;;;;;166024;29;967;-71
2022/05/11 00:31:49;;;;;;;6.22;2.83;;;13.10;99.90;;;;;;166342;29;1504;-72
2022/05/11 00:31:55;;;;;;;5.93;2.70;;;13.10;99.90;;;;;;166623;29;913;-72
2022/05/11 00:32:01;;;;;;;5.77;2.70;;;13.00;99.90;;;;;;166680;29;1616;-72
2022/05/11 00:32:07;;;;;;;3.63;2.70;;;13.10;99.90;;;;;;165736;29;1370;-72
2022/05/11 00:32:13;;;;;;;4.08;2.92;;;13.00;99.90;;;;;;166459;29;1276;-71
2022/05/11 00:32:19;;;;;;;4.75;3.00;;;13.00;99.90;;;;;;166560;29;1358;-71
2022/05/11 00:32:26;;;;;;;5.20;3.07;;;13.00;99.90;;;;;;165381;29;848;-71
2022/05/11 00:32:31;;;;;;;5.08;3.00;;;13.00;99.90;;;;;;165821;29;989;-73
2022/05/11 00:32:38;;;;;;;5.03;3.03;;;13.00;99.90;;;;;;166597;29;1240;-71
2022/05/11 00:32:43;;;;;;;4.43;2.77;;;13.00;99.90;;;;;;165110;29;1282;-72
2022/05/11 00:32:53;;;;;;;3.92;2.60;;;13.00;99.90;;;;;;165309;29;1008;-71
2022/05/11 00:33:00;;;;;;;3.97;2.70;;;13.00;99.90;;;;;;165188;29;1183;-71
2022/05/11 00:33:07;;;;;;;3.98;2.64;;;13.00;99.90;;;;;;165289;29;1473;-71
2022/05/11 00:33:15;;;;;;;3.97;2.60;;;13.00;99.90;;;;;;165043;29;1235;-71
2022/05/11 00:33:21;;;;;;;4.76;2.80;;;13.00;99.90;;;;;;165878;29;1193;-71
2022/05/11 00:33:27;;;;;;;4.90;2.80;;;13.00;99.90;;;;;;166280;29;1334;-73
2022/05/11 00:33:33;;;;;;;4.55;2.75;;;13.00;99.90;;;;;;165803;29;1508;-72
2022/05/11 00:33:39;;;;;;;4.65;2.88;;;12.90;99.90;;;;;;164498;30;1614;-71